createdAt,value
2023-03-25T00:03:51.013Z,99022.00
2023-03-25T00:07:55.773Z,99026.50
2023-03-25T00:11:58.858Z,99010.69
2023-03-25T00:16:03.044Z,99010.69
2023-03-25T00:20:10.377Z,99013.31
2023-03-25T00:24:17.827Z,99021.38
2023-03-25T00:28:20.917Z,99023.16
2023-03-25T00:32:24.317Z,99035.56
2023-03-25T00:36:27.617Z,99035.63
2023-03-25T00:40:34.765Z,99053.31
2023-03-25T00:44:38.010Z,99056.88
2023-03-25T00:48:41.304Z,99042.84
2023-03-25T00:52:44.419Z,99044.66
2023-03-25T00:56:49.138Z,99039.47
2023-03-25T01:00:52.449Z,99041.28
2023-03-25T01:04:57.640Z,99043.03
2023-03-25T01:09:02.684Z,99022.84
2023-03-25T01:13:07.199Z,99015.78
2023-03-25T01:17:10.745Z,99018.59
2023-03-25T01:21:13.872Z,99020.38
2023-03-25T01:25:17.143Z,99024.81
2023-03-25T01:29:24.213Z,99030.94
2023-03-25T01:33:27.406Z,99026.53
2023-03-25T01:37:34.098Z,99026.59
2023-03-25T01:41:48.602Z,99022.22
2023-03-25T01:45:54.428Z,99013.41
2023-03-25T01:49:57.629Z,99004.66
2023-03-25T01:54:00.950Z,98995.88
2023-03-25T01:58:10.660Z,99009.16
2023-03-25T02:02:18.936Z,99027.69
2023-03-25T02:06:28.602Z,99034.78
2023-03-25T02:10:31.660Z,99045.44
2023-03-25T02:14:37.060Z,99037.53
2023-03-25T02:18:49.392Z,99041.06
2023-03-25T02:23:13.269Z,99033.25
2023-03-25T02:27:27.296Z,99034.09
2023-03-25T02:31:57.069Z,99030.69
2023-03-25T02:36:56.452Z,99033.31
2023-03-25T02:41:09.503Z,99028.13
2023-03-25T02:45:16.867Z,99024.66
2023-03-25T02:49:24.992Z,99019.44
2023-03-25T02:53:33.554Z,99016.84
2023-03-25T02:57:41.695Z,99010.66
2023-03-25T03:01:45.641Z,99015.09
2023-03-25T03:05:53.098Z,99023.03
2023-03-25T03:10:06.100Z,99016.88
2023-03-25T03:14:29.404Z,99023.09
2023-03-25T03:18:45.016Z,99021.41
2023-03-25T03:22:54.137Z,99039.09
2023-03-25T03:27:01.607Z,99039.16
2023-03-25T03:31:13.427Z,99051.47
2023-03-25T03:35:40.662Z,99051.53
2023-03-25T03:39:45.660Z,99051.53
2023-03-25T03:43:52.611Z,99048.97
2023-03-25T03:47:59.376Z,99067.50
2023-03-25T03:52:08.935Z,99074.56
2023-03-25T03:56:19.270Z,99076.38
2023-03-25T04:00:27.284Z,99076.41
2023-03-25T04:04:34.768Z,99076.41
2023-03-25T04:08:47.072Z,99070.31
2023-03-25T04:12:55.331Z,99062.41
2023-03-25T04:16:59.786Z,99070.31
2023-03-25T04:21:04.980Z,99065.06
2023-03-25T04:25:08.674Z,99071.31
2023-03-25T04:29:13.894Z,99078.41
2023-03-25T04:33:17.846Z,99083.72
2023-03-25T04:37:23.995Z,99089.03
2023-03-25T04:41:28.737Z,99087.38
2023-03-25T04:45:36.524Z,99078.59
2023-03-25T04:49:39.508Z,99094.47
2023-03-25T04:53:44.206Z,99077.72
2023-03-25T04:57:47.786Z,99073.31
2023-03-25T05:01:52.851Z,99085.66
2023-03-25T05:05:56.523Z,99091.00
2023-03-25T05:10:01.793Z,99108.59
2023-03-25T05:14:05.013Z,99120.09
2023-03-25T05:18:10.663Z,99127.13
2023-03-25T05:22:14.549Z,99129.88
2023-03-25T05:26:19.456Z,99128.13
2023-03-25T05:30:22.592Z,99122.91
2023-03-25T05:34:25.735Z,99115.03
2023-03-25T05:38:28.769Z,99111.53
2023-03-25T05:42:34.930Z,99111.56
2023-03-25T05:46:38.057Z,99115.03
2023-03-25T05:50:42.954Z,99113.28
2023-03-25T05:54:46.420Z,99120.25
2023-03-25T05:58:52.677Z,99124.59
2023-03-25T06:02:55.771Z,99135.09
2023-03-25T06:06:58.931Z,99145.59
2023-03-25T06:11:02.243Z,99148.22
2023-03-25T06:15:08.665Z,99151.66
2023-03-25T06:19:11.646Z,99156.03
2023-03-25T06:23:15.020Z,99159.56
2023-03-25T06:27:19.785Z,99173.69
2023-03-25T06:31:26.913Z,99178.03
2023-03-25T06:35:30.460Z,99199.13
2023-03-25T06:39:33.823Z,99189.47
2023-03-25T06:43:42.189Z,99197.38
2023-03-25T06:47:58.396Z,99197.41
2023-03-25T06:52:01.379Z,99191.22
2023-03-25T06:56:04.623Z,99179.78
2023-03-25T07:00:09.878Z,99184.13
2023-03-25T07:04:14.295Z,99170.88
2023-03-25T07:08:17.509Z,99159.34
2023-03-25T07:12:20.619Z,99161.13
2023-03-25T07:16:24.725Z,99162.84
2023-03-25T07:20:29.161Z,99160.25
2023-03-25T07:24:32.141Z,99157.56
2023-03-25T07:28:35.457Z,99155.78
2023-03-25T07:32:38.635Z,99142.56
2023-03-25T07:36:43.080Z,99132.84
2023-03-25T07:40:49.899Z,99132.81
2023-03-25T07:44:53.552Z,99136.31
2023-03-25T07:48:56.543Z,99134.50
2023-03-25T07:53:01.008Z,99118.59
2023-03-25T07:57:03.991Z,99109.66
2023-03-25T08:01:08.039Z,99109.53
2023-03-25T08:05:12.471Z,99111.19
2023-03-25T08:09:16.960Z,99104.03
2023-03-25T08:13:20.281Z,99096.88
2023-03-25T08:17:24.516Z,99100.38
2023-03-25T08:21:27.958Z,99095.09
2023-03-25T08:25:32.568Z,99096.88
2023-03-25T08:29:35.666Z,99120.63
2023-03-25T08:33:41.298Z,99130.41
2023-03-25T08:37:44.394Z,99127.72
2023-03-25T08:41:48.902Z,99125.91
2023-03-25T08:45:51.991Z,99132.00
2023-03-25T08:49:55.315Z,99157.41
2023-03-25T08:53:58.324Z,99138.03
2023-03-25T08:58:06.268Z,99145.91
2023-03-25T09:02:12.368Z,99149.44
2023-03-25T09:06:15.729Z,99141.50
2023-03-25T09:10:18.954Z,99152.00
2023-03-25T09:14:23.386Z,99154.59
2023-03-25T09:18:27.117Z,99144.00
2023-03-25T09:22:30.240Z,99152.72
2023-03-25T09:26:33.318Z,99153.56
2023-03-25T09:30:37.800Z,99158.00
2023-03-25T09:34:41.085Z,99157.91
2023-03-25T09:38:44.156Z,99159.63
2023-03-25T09:43:13.979Z,99166.72
2023-03-25T09:47:21.405Z,99160.63
2023-03-25T09:51:27.999Z,99158.81
2023-03-25T09:55:34.341Z,99153.53
2023-03-25T09:59:43.588Z,99150.78
2023-03-25T10:03:57.024Z,99137.47
2023-03-25T10:08:13.462Z,99148.84
2023-03-25T10:12:30.849Z,99151.41
2023-03-25T10:16:45.262Z,99140.75
2023-03-25T10:20:55.788Z,99142.38
2023-03-25T10:25:02.117Z,99125.53
2023-03-25T10:29:11.400Z,99132.53
2023-03-25T10:33:21.910Z,99138.66
2023-03-25T10:37:31.594Z,99122.78
2023-03-25T10:41:37.789Z,99134.13
2023-03-25T10:45:42.935Z,99127.03
2023-03-25T10:49:48.059Z,99158.72
2023-03-25T10:53:53.389Z,99154.34
2023-03-25T10:57:57.517Z,99156.16
2023-03-25T11:02:01.993Z,99165.91
2023-03-25T11:06:05.836Z,99167.56
2023-03-25T11:10:18.690Z,99160.44
2023-03-25T11:14:25.530Z,99170.97
2023-03-25T11:18:31.568Z,99175.41
2023-03-25T11:22:38.448Z,99177.91
2023-03-25T11:26:43.476Z,99176.13
2023-03-25T11:31:13.272Z,99165.38
2023-03-25T11:35:18.861Z,99159.88
2023-03-25T11:39:30.332Z,99154.50
2023-03-25T11:43:38.264Z,99151.66
2023-03-25T11:47:42.212Z,99146.22
2023-03-25T11:51:45.445Z,99139.00
2023-03-25T11:55:51.785Z,99129.00
2023-03-25T12:00:09.358Z,99131.53
2023-03-25T12:04:18.398Z,99126.47
2023-03-25T12:08:21.618Z,99133.69
2023-03-25T12:12:44.162Z,99124.19
2023-03-25T12:16:55.129Z,99122.59
2023-03-25T12:21:07.632Z,99119.13
2023-03-25T12:25:23.160Z,99123.59
2023-03-25T12:29:41.906Z,99105.16
2023-03-25T12:33:58.295Z,99112.22
2023-03-25T12:38:22.577Z,99102.44
2023-03-25T12:42:37.071Z,99097.81
2023-03-25T12:47:02.882Z,99096.69
2023-03-25T12:51:18.361Z,99083.13
2023-03-25T12:55:51.500Z,99079.25
2023-03-25T13:00:14.893Z,99072.78
2023-03-25T13:04:29.387Z,99071.47
2023-03-25T13:08:37.381Z,99072.69
2023-03-25T13:12:44.569Z,99066.06
2023-03-25T13:16:52.046Z,99062.03
2023-03-25T13:21:09.049Z,99058.88
2023-03-25T13:25:28.958Z,99047.81
2023-03-25T13:29:38.254Z,99040.50
2023-03-25T13:33:46.868Z,99040.59
2023-03-25T13:37:53.067Z,99032.72
2023-03-25T13:42:05.824Z,99028.34
2023-03-25T13:46:11.809Z,99038.97
2023-03-25T13:50:19.425Z,99031.91
2023-03-25T13:54:28.656Z,99018.00
2023-03-25T13:58:52.747Z,99027.84
2023-03-25T14:03:41.355Z,99031.63
2023-03-25T14:08:21.508Z,99022.03
2023-03-25T14:12:31.522Z,99025.81
2023-03-25T14:16:41.888Z,99027.84
2023-03-25T14:20:46.083Z,99029.88
2023-03-25T14:24:51.120Z,99027.22
2023-03-25T14:28:58.144Z,99022.06
2023-03-25T14:33:04.180Z,99016.84
2023-03-25T14:37:30.615Z,99014.22
2023-03-25T14:41:59.387Z,99014.97
2023-03-25T14:46:07.059Z,99011.47
2023-03-25T14:50:32.966Z,99012.69
2023-03-25T14:54:36.813Z,99009.63
2023-03-25T14:58:41.848Z,99005.47
2023-03-25T15:02:50.792Z,98994.19
2023-03-25T15:06:55.464Z,99001.31
2023-03-25T15:11:08.033Z,98997.69
2023-03-25T15:15:28.496Z,98997.75
2023-03-25T15:19:51.527Z,98994.09
2023-03-25T15:24:08.475Z,98987.72
2023-03-25T15:28:20.320Z,98986.63
2023-03-25T15:32:38.392Z,98988.28
2023-03-25T15:37:02.403Z,98974.25
2023-03-25T15:41:32.777Z,98975.31
2023-03-25T15:46:05.772Z,98981.66
2023-03-25T15:50:31.901Z,98968.53
2023-03-25T15:54:39.543Z,98980.03
2023-03-25T15:58:51.152Z,98977.47
2023-03-25T16:02:59.644Z,98973.13
2023-03-25T16:07:06.988Z,98973.97
2023-03-25T16:11:24.102Z,98974.75
2023-03-25T16:15:31.190Z,98978.34
2023-03-25T16:19:40.001Z,98964.28
2023-03-25T16:23:43.192Z,98971.34
2023-03-25T16:27:48.874Z,98989.09
2023-03-25T16:31:56.529Z,99002.59
2023-03-25T16:36:01.365Z,98989.56
2023-03-25T16:40:07.243Z,99003.88
2023-03-25T16:44:16.586Z,99037.72
2023-03-25T16:48:27.999Z,99103.13
2023-03-25T16:52:35.546Z,99137.16
2023-03-25T16:56:39.738Z,99142.25
2023-03-25T17:00:43.941Z,99155.22
2023-03-25T17:04:48.444Z,99152.00
2023-03-25T17:08:53.561Z,99160.25
2023-03-25T17:13:02.297Z,99185.06
2023-03-25T17:17:12.440Z,99206.38
2023-03-25T17:21:26.643Z,99222.38
2023-03-25T17:25:33.382Z,99231.44
2023-03-25T17:29:50.863Z,99245.06
2023-03-25T17:33:59.041Z,99231.25
2023-03-25T17:38:03.706Z,99237.56
2023-03-25T17:42:08.865Z,99197.34
2023-03-25T17:46:15.027Z,99208.97
2023-03-25T17:50:20.084Z,99204.63
2023-03-25T17:54:24.754Z,99203.00
2023-03-25T17:58:27.909Z,99205.75
2023-03-25T18:02:31.125Z,99215.47
2023-03-25T18:06:34.133Z,99226.97
2023-03-25T18:10:39.565Z,99226.13
2023-03-25T18:14:44.002Z,99220.91
2023-03-25T18:18:47.264Z,99226.22
2023-03-25T18:22:52.484Z,99225.41
2023-03-25T18:26:58.114Z,99221.91
2023-03-25T18:31:01.264Z,99232.50
2023-03-25T18:35:04.575Z,99242.19
2023-03-25T18:39:08.443Z,99242.22
2023-03-25T18:43:12.888Z,99251.00
2023-03-25T18:47:15.877Z,99262.47
2023-03-25T18:51:18.939Z,99257.22
2023-03-25T18:55:22.331Z,99252.00
2023-03-25T18:59:26.768Z,99256.44
2023-03-25T19:03:31.783Z,99262.59
2023-03-25T19:07:42.550Z,99267.94
2023-03-25T19:11:52.106Z,99261.81
2023-03-25T19:15:56.878Z,99254.78
2023-03-25T19:19:59.802Z,99262.69
2023-03-25T19:24:02.992Z,99261.84
2023-03-25T19:28:06.721Z,99276.81
2023-03-25T19:32:11.345Z,99283.84
2023-03-25T19:36:15.911Z,99283.88
2023-03-25T19:40:22.167Z,99277.78
2023-03-25T19:44:25.424Z,99278.69
2023-03-25T19:48:30.739Z,99268.22
2023-03-25T19:52:33.745Z,99267.38
2023-03-25T19:56:37.070Z,99248.09
2023-03-25T20:00:40.122Z,99230.53
2023-03-25T20:04:44.640Z,99226.16
2023-03-25T20:08:47.653Z,99220.03
2023-03-25T20:12:51.170Z,99230.56
2023-03-25T20:16:54.168Z,99213.88
2023-03-25T20:20:58.882Z,99198.94
2023-03-25T20:25:02.053Z,99193.66
2023-03-25T20:29:05.325Z,99208.53
2023-03-25T20:33:08.355Z,99212.03
2023-03-25T20:37:12.890Z,99217.28
2023-03-25T20:41:16.659Z,99219.97
2023-03-25T20:45:21.372Z,99234.91
2023-03-25T20:49:24.411Z,99221.78
2023-03-25T20:53:30.207Z,99224.47
2023-03-25T20:57:33.259Z,99226.19
2023-03-25T21:01:36.769Z,99229.75
2023-03-25T21:05:40.805Z,99229.75
2023-03-25T21:09:45.514Z,99232.44
2023-03-25T21:13:48.531Z,99239.47
2023-03-25T21:17:51.828Z,99249.97
2023-03-25T21:21:55.579Z,99252.63
2023-03-25T21:26:01.201Z,99250.00
2023-03-25T21:30:04.361Z,99242.09
2023-03-25T21:34:07.778Z,99240.34
2023-03-25T21:38:10.828Z,99252.63
2023-03-25T21:42:15.912Z,99247.38
2023-03-25T21:46:19.121Z,99255.28
2023-03-25T21:50:22.776Z,99254.41
2023-03-25T21:54:26.505Z,99253.53
2023-03-25T21:58:32.188Z,99249.19
2023-03-25T22:02:35.261Z,99244.78
2023-03-25T22:06:38.428Z,99243.88
2023-03-25T22:10:41.437Z,99235.13
2023-03-25T22:14:45.961Z,99237.75
2023-03-25T22:18:49.389Z,99232.50
2023-03-25T22:22:53.804Z,99230.75
2023-03-25T22:26:56.789Z,99215.84
2023-03-25T22:31:01.511Z,99225.47
2023-03-25T22:35:04.951Z,99223.75
2023-03-25T22:39:08.389Z,99217.63
2023-03-25T22:43:12.191Z,99220.25
2023-03-25T22:47:16.702Z,99222.03
2023-03-25T22:51:22.012Z,99212.38
2023-03-25T22:55:25.082Z,99219.41
2023-03-25T22:59:28.143Z,99229.91
2023-03-25T23:03:33.305Z,99222.03
2023-03-25T23:07:36.368Z,99212.38
2023-03-25T23:11:39.902Z,99211.50
2023-03-25T23:15:42.968Z,99204.50
2023-03-25T23:19:47.816Z,99201.84
2023-03-25T23:23:53.889Z,99207.09
2023-03-25T23:27:58.236Z,99207.97
2023-03-25T23:32:01.238Z,99199.22
2023-03-25T23:36:06.982Z,99200.09
2023-03-25T23:40:12.549Z,99203.56
2023-03-25T23:44:15.954Z,99203.56
2023-03-25T23:48:19.054Z,99198.28
2023-03-25T23:52:23.753Z,99185.13
2023-03-25T23:56:26.854Z,99180.72
